Time;durP1;ratioP1;P1;durP2;ratioP2;P2;SDS_P1;SDS_P2;PMS_P1;PMS_P2;Temp;Humidity;BMP_temperature;BMP_pressure;BME280_temperature;BME280_humidity;BME280_pressure;Samples;Min_cycle;Max_cycle;Signal;HPM_P1;HPM_P2
2023/08/02 00:01:25;;;;;;;3.58;2.10;;;;;;;15.31;89.86;100034.13;4992730;28;20106;-88
2023/08/02 00:03:50;;;;;;;4.50;2.05;;;;;;;15.29;90.08;100020.28;4992382;28;20367;-89
2023/08/02 00:06:15;;;;;;;4.00;2.00;;;;;;;15.27;89.83;100009.91;4990138;28;20045;-88
2023/08/02 00:08:41;;;;;;;7.55;2.38;;;;;;;15.25;90.16;100013.56;4992408;28;20034;-89
2023/08/02 00:11:14;;;;;;;4.63;2.10;;;;;;;15.23;90.19;100003.16;4992056;28;20030;-88
2023/08/02 00:13:40;;;;;;;5.95;2.17;;;;;;;15.19;90.61;100006.91;4977584;28;20030;-89
2023/08/02 00:16:05;;;;;;;8.02;2.20;;;;;;;15.17;90.65;100006.16;4991445;28;20030;-89
2023/08/02 00:18:30;;;;;;;4.68;2.08;;;;;;;15.13;90.72;100008.06;4990731;28;20448;-88
2023/08/02 00:20:55;;;;;;;3.63;2.00;;;;;;;15.12;90.44;100016.03;4991885;28;20030;-89
2023/08/02 00:23:21;;;;;;;5.82;1.80;;;;;;;15.09;90.71;100029.31;4990403;28;20047;-88
2023/08/02 00:25:46;;;;;;;4.93;2.00;;;;;;;15.06;91.13;100026.88;4990385;28;20026;-88
2023/08/02 00:28:11;;;;;;;5.63;2.35;;;;;;;15.03;90.66;100025.28;4990866;28;20022;-88
2023/08/02 00:30:44;;;;;;;7.03;2.15;;;;;;;14.99;91.01;100014.13;4990747;28;20425;-89
2023/08/02 00:33:09;;;;;;;4.25;1.90;;;;;;;14.97;91.38;100025.63;4993798;28;20490;-88
2023/08/02 00:35:35;;;;;;;5.90;1.95;;;;;;;14.94;91.22;100031.06;4992724;28;20031;-89
2023/08/02 00:38:00;;;;;;;4.35;2.00;;;;;;;14.91;91.49;100026.81;4993744;28;20045;-88
2023/08/02 00:40:25;;;;;;;2.92;1.60;;;;;;;14.88;91.51;100021.75;4994214;28;20093;-90
2023/08/02 00:42:50;;;;;;;4.50;2.00;;;;;;;14.85;91.64;100014.91;4996064;28;20030;-88
2023/08/02 00:45:16;;;;;;;2.88;1.63;;;;;;;14.84;91.70;100009.78;4991186;28;20034;-87
2023/08/02 00:47:41;;;;;;;5.43;1.95;;;;;;;14.81;92.03;99994.25;4993687;28;20026;-88
2023/08/02 00:50:07;;;;;;;4.63;1.88;;;;;;;14.77;92.31;99988.34;4994661;28;20097;-88
2023/08/02 00:52:33;;;;;;;4.28;1.67;;;;;;;14.75;92.22;99994.56;4993354;28;20049;-88
2023/08/02 00:54:58;;;;;;;4.85;1.67;;;;;;;14.72;92.41;99996.44;4993605;28;20098;-89
2023/08/02 00:57:24;;;;;;;3.40;1.90;;;;;;;14.72;92.44;99993.81;4994238;28;20045;-88
2023/08/02 00:59:49;;;;;;;3.78;1.83;;;;;;;14.71;92.86;99983.44;4996624;28;20032;-88
2023/08/02 01:02:14;;;;;;;7.25;1.90;;;;;;;14.69;93.44;99970.44;4993143;28;20026;-88
2023/08/02 01:04:40;;;;;;;2.80;1.60;;;;;;;14.71;93.72;99963.31;4991196;28;20069;-88
2023/08/02 01:07:42;;;;;;;5.15;2.42;;;;;;;14.72;93.23;99959.78;4993505;28;20499;-89
2023/08/02 01:10:14;;;;;;;7.68;3.47;;;;;;;14.75;93.90;99968.41;4992390;28;20042;-88
2023/08/02 01:12:44;;;;;;;7.38;3.65;;;;;;;14.76;93.97;99965.72;4992934;28;20367;-88
2023/08/02 01:15:12;;;;;;;6.72;3.30;;;;;;;14.77;94.18;99974.38;4994709;28;20101;-84
2023/08/02 01:17:37;;;;;;;6.03;2.80;;;;;;;14.78;94.00;99976.09;4996880;28;20030;-88
2023/08/02 01:20:04;;;;;;;7.32;2.70;;;;;;;14.78;94.33;99974.28;4994199;28;20047;-89
2023/08/02 01:22:30;;;;;;;4.22;2.40;;;;;;;14.79;94.67;99970.75;4976781;28;20057;-88
2023/08/02 01:24:56;;;;;;;4.35;2.30;;;;;;;14.80;94.78;99982.06;4975935;28;20062;-89
2023/08/02 01:27:25;;;;;;;4.63;2.30;;;;;;;14.80;95.14;99974.22;4959341;28;20081;-88
2023/08/02 01:29:52;;;;;;;4.60;2.10;;;;;;;14.81;95.17;99978.53;4976347;28;20427;-88
2023/08/02 01:32:21;;;;;;;3.95;1.83;;;;;;;14.80;94.97;99979.47;4975926;28;20034;-88
2023/08/02 01:34:47;;;;;;;5.07;1.88;;;;;;;14.81;95.08;99968.06;4975788;28;20026;-89
2023/08/02 01:37:12;;;;;;;3.83;1.73;;;;;;;14.82;95.02;99965.34;4976310;28;20026;-89
2023/08/02 01:39:37;;;;;;;3.53;1.67;;;;;;;14.84;94.99;99960.84;4959111;28;20399;-88
2023/08/02 01:42:03;;;;;;;3.67;1.80;;;;;;;14.84;95.38;99960.84;4976157;28;20075;-88
2023/08/02 01:44:28;;;;;;;2.72;1.60;;;;;;;14.87;94.84;99951.97;4974817;28;20058;-89
2023/08/02 01:46:54;;;;;;;3.15;1.60;;;;;;;14.86;95.68;99939.81;4976489;28;20023;-89
2023/08/02 01:49:21;;;;;;;4.75;1.70;;;;;;;14.88;95.46;99943.19;4993437;28;20022;-88
2023/08/02 01:51:46;;;;;;;3.90;1.48;;;;;;;14.90;95.85;99940.50;4990056;28;20042;-88
2023/08/02 01:54:12;;;;;;;5.78;1.88;;;;;;;14.92;95.69;99933.41;4985201;28;20018;-88
2023/08/02 01:56:37;;;;;;;3.63;1.45;;;;;;;14.93;95.57;99930.66;4982898;28;20033;-89
2023/08/02 01:59:02;;;;;;;3.55;1.42;;;;;;;14.94;95.56;99932.34;4979185;28;20027;-88
2023/08/02 02:01:27;;;;;;;4.28;1.65;;;;;;;14.96;95.67;99925.25;4987212;28;20109;-88
2023/08/02 02:03:53;;;;;;;6.20;1.90;;;;;;;14.96;95.92;99912.16;4984171;28;20514;-89
2023/08/02 02:06:18;;;;;;;6.60;1.83;;;;;;;14.99;95.89;99916.38;4983741;28;20027;-88
2023/08/02 02:08:43;;;;;;;2.90;1.60;;;;;;;14.99;95.54;99906.75;4979043;28;20039;-89
2023/08/02 02:11:09;;;;;;;3.60;1.60;;;;;;;15.00;95.75;99903.19;4979960;28;20028;-88
2023/08/02 02:13:34;;;;;;;3.42;1.60;;;;;;;14.99;95.72;99893.66;4980965;28;20034;-89
2023/08/02 02:15:59;;;;;;;5.28;1.60;;;;;;;15.00;95.75;99873.53;4975725;28;20483;-87
2023/08/02 02:18:24;;;;;;;3.10;1.50;;;;;;;14.98;96.26;99860.53;4981740;28;20025;-88
2023/08/02 02:20:50;;;;;;;4.85;1.67;;;;;;;14.98;95.87;99878.00;4974039;28;20118;-88
2023/08/02 02:23:15;;;;;;;5.28;1.75;;;;;;;14.97;95.79;99885.03;4973658;28;20038;-88
2023/08/02 02:25:40;;;;;;;4.70;1.80;;;;;;;14.97;95.99;99879.81;4973630;28;20569;-88
2023/08/02 02:28:06;;;;;;;4.05;1.50;;;;;;;14.97;96.19;99863.22;4955700;28;20030;-88
2023/08/02 02:30:32;;;;;;;3.88;1.90;;;;;;;14.97;96.39;99855.38;4973958;28;20447;-88
2023/08/02 02:32:58;;;;;;;3.75;1.55;;;;;;;14.97;96.24;99843.13;4956024;28;20053;-89
2023/08/02 02:35:25;;;;;;;5.38;1.75;;;;;;;14.98;96.32;99838.72;4973739;28;20034;-89
2023/08/02 02:37:51;;;;;;;3.00;1.58;;;;;;;14.97;96.10;99830.03;4974391;28;20448;-88
2023/08/02 02:40:17;;;;;;;3.60;1.60;;;;;;;14.96;96.47;99828.34;4974077;28;20494;-88
2023/08/02 02:42:42;;;;;;;2.60;1.52;;;;;;;14.98;96.62;99833.50;4972197;28;20073;-88
2023/08/02 02:45:09;;;;;;;5.10;1.67;;;;;;;14.99;96.43;99825.56;4973460;28;20023;-88
2023/08/02 02:47:34;;;;;;;5.75;1.90;;;;;;;15.02;96.28;99829.75;4972460;28;20038;-88
2023/08/02 02:49:59;;;;;;;4.25;1.67;;;;;;;15.02;96.76;99817.50;4972546;28;20030;-88
2023/08/02 02:52:24;;;;;;;7.00;2.00;;;;;;;15.02;96.82;99814.91;4973132;28;20018;-88
2023/08/02 02:54:50;;;;;;;4.47;1.70;;;;;;;15.03;96.78;99820.97;4972790;28;20110;-88
2023/08/02 02:57:16;;;;;;;4.00;1.77;;;;;;;15.05;96.60;99810.38;4972354;28;20030;-88
2023/08/02 02:59:42;;;;;;;4.85;1.75;;;;;;;15.06;96.59;99822.53;4972363;28;20056;-88
2023/08/02 03:02:07;;;;;;;4.32;1.77;;;;;;;15.07;96.79;99832.09;4973111;28;20581;-88
2023/08/02 03:04:33;;;;;;;5.90;1.90;;;;;;;15.08;96.68;99818.06;4970180;28;20523;-87
2023/08/02 03:06:58;;;;;;;3.72;1.80;;;;;;;15.09;96.28;99809.25;4972696;28;20026;-88
2023/08/02 03:09:23;;;;;;;4.75;1.75;;;;;;;15.09;96.44;99793.53;4973060;28;20026;-88
2023/08/02 03:11:48;;;;;;;3.78;1.65;;;;;;;15.10;96.48;99790.00;4973654;28;20084;-89
2023/08/02 03:14:14;;;;;;;5.55;1.83;;;;;;;15.09;96.42;99794.41;4972926;28;20081;-88
2023/08/02 03:16:43;;;;;;;3.75;1.75;;;;;;;15.09;96.19;99773.44;4973149;28;20026;-89
2023/08/02 03:19:09;;;;;;;4.63;1.80;;;;;;;15.09;96.47;99756.88;4963092;28;20054;-89
2023/08/02 03:21:34;;;;;;;5.07;1.85;;;;;;;15.09;96.37;99754.25;4991691;28;20030;-88
2023/08/02 03:23:59;;;;;;;4.60;1.75;;;;;;;15.08;96.42;99745.56;4990584;28;20484;-88
2023/08/02 03:26:24;;;;;;;3.15;1.50;;;;;;;15.09;96.31;99735.91;4990687;28;20497;-89
2023/08/02 03:28:50;;;;;;;4.40;1.65;;;;;;;15.07;96.27;99729.94;4990023;28;20155;-88
2023/08/02 03:31:15;;;;;;;3.90;1.70;;;;;;;15.05;96.79;99724.81;4991602;28;20042;-88
2023/08/02 03:33:41;;;;;;;3.83;1.73;;;;;;;15.03;97.07;99722.25;4975214;28;20059;-89
2023/08/02 03:36:06;;;;;;;4.63;1.90;;;;;;;15.02;97.37;99717.97;4990008;28;20022;-89
2023/08/02 03:38:32;;;;;;;4.10;1.65;;;;;;;15.00;97.80;99709.38;4990128;28;20030;-88
2023/08/02 03:40:57;;;;;;;5.88;1.95;;;;;;;14.98;98.09;99724.34;4992285;28;20034;-89
2023/08/02 03:43:22;;;;;;;4.00;1.83;;;;;;;14.98;98.50;99716.50;4988366;28;20015;-89
2023/08/02 03:45:49;;;;;;;4.35;1.90;;;;;;;14.97;98.85;99719.19;4991319;28;20030;-88
2023/08/02 03:48:15;;;;;;;4.10;1.90;;;;;;;14.95;98.92;99714.06;4991205;28;20030;-88
2023/08/02 03:50:40;;;;;;;5.28;1.85;;;;;;;14.95;99.12;99702.72;4991071;28;20446;-89
2023/08/02 03:53:06;;;;;;;3.92;1.67;;;;;;;14.95;99.67;99703.56;4990710;28;20038;-88
2023/08/02 03:55:31;;;;;;;3.05;1.60;;;;;;;14.94;99.99;99707.13;4991899;28;20466;-88
2023/08/02 03:57:57;;;;;;;4.47;1.80;;;;;;;14.95;99.98;99697.47;4992405;28;20437;-89
2023/08/02 04:00:23;;;;;;;4.72;1.85;;;;;;;14.96;99.97;99683.44;4990126;28;20034;-89
2023/08/02 04:02:48;;;;;;;5.85;2.00;;;;;;;14.98;100.00;99679.81;4991021;28;20415;-88
2023/08/02 04:05:13;;;;;;;3.40;1.73;;;;;;;14.99;100.00;99668.41;4992309;28;20030;-89
2023/08/02 04:07:38;;;;;;;5.22;2.00;;;;;;;14.99;100.00;99671.03;4992183;28;20034;-88
2023/08/02 04:10:04;;;;;;;5.00;1.80;;;;;;;15.01;100.00;99671.78;4994882;28;20026;-88
2023/08/02 04:12:29;;;;;;;6.03;2.13;;;;;;;15.02;100.00;99667.38;4995412;28;20038;-90
2023/08/02 04:14:55;;;;;;;3.25;1.65;;;;;;;15.01;100.00;99671.78;4999075;28;20022;-88
2023/08/02 04:17:20;;;;;;;3.65;2.00;;;;;;;15.00;100.00;99654.38;4998328;28;20421;-88
2023/08/02 04:19:46;;;;;;;4.32;2.05;;;;;;;15.01;100.00;99642.97;4976131;28;20380;-89
2023/08/02 04:22:11;;;;;;;5.18;2.03;;;;;;;15.00;100.00;99638.66;4978588;28;20399;-89
2023/08/02 04:24:36;;;;;;;4.03;1.90;;;;;;;15.01;100.00;99624.63;4978334;28;20031;-89
2023/08/02 04:27:02;;;;;;;5.40;2.33;;;;;;;15.01;100.00;99622.00;4979300;28;20050;-88
2023/08/02 04:29:27;;;;;;;4.85;2.05;;;;;;;15.02;100.00;99625.47;4977652;28;20034;-88
2023/08/02 04:31:52;;;;;;;3.80;2.10;;;;;;;15.02;100.00;99620.22;4978859;28;20034;-88
2023/08/02 04:34:17;;;;;;;4.13;2.15;;;;;;;15.01;100.00;99608.91;4979320;28;20034;-88
2023/08/02 04:36:43;;;;;;;4.47;2.05;;;;;;;15.02;100.00;99601.88;4977141;28;20035;-89
2023/08/02 04:39:08;;;;;;;6.07;2.22;;;;;;;15.02;100.00;99594.88;4977060;28;20030;-89
2023/08/02 04:41:34;;;;;;;3.25;1.83;;;;;;;15.03;100.00;99586.06;4978316;28;20375;-88
2023/08/02 04:44:00;;;;;;;4.55;2.17;;;;;;;15.03;100.00;99578.19;4977788;28;20061;-88
2023/08/02 04:46:29;;;;;;;5.22;2.20;;;;;;;15.03;100.00;99569.53;4977605;28;20059;-88
2023/08/02 04:48:55;;;;;;;4.25;2.10;;;;;;;15.03;100.00;99569.53;4977020;28;20030;-89
2023/08/02 04:51:21;;;;;;;4.50;2.05;;;;;;;15.02;100.00;99568.69;4977595;28;20109;-88
2023/08/02 04:53:48;;;;;;;4.60;2.33;;;;;;;15.05;100.00;99556.31;4978227;28;20146;-88
2023/08/02 04:56:15;;;;;;;7.40;2.78;;;;;;;15.05;100.00;99537.97;4975726;28;20035;-88
2023/08/02 04:58:41;;;;;;;4.90;2.40;;;;;;;15.06;100.00;99526.56;4977755;28;20045;-88
2023/08/02 05:01:06;;;;;;;4.78;2.45;;;;;;;15.07;100.00;99528.25;4973316;28;20154;-89
2023/08/02 05:03:35;;;;;;;5.00;2.20;;;;;;;15.08;100.00;99519.44;4977297;28;20130;-88
2023/08/02 05:06:02;;;;;;;6.10;2.70;;;;;;;15.10;100.00;99514.94;4976391;28;20745;-89
2023/08/02 05:08:29;;;;;;;4.65;2.47;;;;;;;15.12;100.00;99513.91;4976188;28;20037;-88
2023/08/02 05:10:54;;;;;;;6.57;2.45;;;;;;;15.13;100.00;99506.91;4975771;28;20058;-88
2023/08/02 05:13:22;;;;;;;5.10;2.30;;;;;;;15.14;100.00;99511.19;4978431;28;20046;-89
2023/08/02 05:15:48;;;;;;;5.20;2.45;;;;;;;15.16;100.00;99511.94;4978014;28;20263;-88
2023/08/02 05:18:13;;;;;;;5.28;2.28;;;;;;;15.15;100.00;99505.00;4979524;28;20206;-88
2023/08/02 05:20:38;;;;;;;4.10;2.55;;;;;;;15.18;100.00;99507.44;4984894;28;20057;-88
2023/08/02 05:23:03;;;;;;;5.55;2.40;;;;;;;15.19;100.00;99506.50;4978091;28;20037;-88
2023/08/02 05:25:34;;;;;;;4.25;2.35;;;;;;;15.20;100.00;99502.91;4981411;28;20094;-88
2023/08/02 05:27:59;;;;;;;3.57;2.20;;;;;;;15.21;100.00;99478.38;4982940;28;20041;-89
2023/08/02 05:30:27;;;;;;;4.15;2.38;;;;;;;15.21;100.00;99483.63;4993079;28;20030;-88
2023/08/02 05:32:53;;;;;;;3.70;2.22;;;;;;;15.21;100.00;99482.81;4994561;28;20034;-88
2023/08/02 05:35:18;;;;;;;5.68;2.40;;;;;;;15.20;100.00;99486.38;4994891;28;20026;-88
2023/08/02 05:37:43;;;;;;;4.72;2.17;;;;;;;15.21;100.00;99473.16;4994469;28;20030;-88
2023/08/02 05:40:09;;;;;;;5.75;2.40;;;;;;;15.20;100.00;99466.22;4995375;28;20034;-88
2023/08/02 05:42:34;;;;;;;4.80;2.35;;;;;;;15.20;100.00;99462.78;4995217;28;20038;-88
2023/08/02 05:44:59;;;;;;;3.38;2.33;;;;;;;15.19;100.00;99446.25;4993115;28;20138;-89
2023/08/02 05:47:25;;;;;;;6.78;2.60;;;;;;;15.19;100.00;99435.75;4995624;28;20038;-89
2023/08/02 05:49:50;;;;;;;3.65;2.10;;;;;;;15.20;100.00;99428.72;4992255;28;20022;-88
2023/08/02 05:52:15;;;;;;;4.55;2.22;;;;;;;15.20;100.00;99419.06;4992188;28;20154;-88
2023/08/02 05:54:41;;;;;;;4.63;2.30;;;;;;;15.21;100.00;99415.50;4990649;28;20492;-90
2023/08/02 05:57:07;;;;;;;5.00;2.20;;;;;;;15.22;100.00;99416.38;4991606;28;20104;-88
2023/08/02 05:59:33;;;;;;;4.32;2.20;;;;;;;15.23;100.00;99413.63;4991245;28;20034;-88
2023/08/02 06:01:59;;;;;;;3.60;2.22;;;;;;;15.24;100.00;99410.06;4986557;28;20080;-88
2023/08/02 06:04:24;;;;;;;4.75;2.50;;;;;;;15.25;100.00;99401.28;4990372;28;20030;-89
2023/08/02 06:06:50;;;;;;;3.53;2.22;;;;;;;15.26;100.00;99399.50;4992857;28;20030;-89
2023/08/02 06:09:15;;;;;;;4.15;2.47;;;;;;;15.24;100.00;99381.25;4992518;28;20096;-88
2023/08/02 06:11:40;;;;;;;4.03;2.38;;;;;;;15.24;100.00;99385.66;4993220;28;20033;-88
2023/08/02 06:14:06;;;;;;;3.58;2.40;;;;;;;15.25;100.00;99361.16;4985018;28;20022;-88
2023/08/02 06:16:31;;;;;;;4.63;2.00;;;;;;;15.26;100.00;99361.03;4990294;28;20392;-89
2023/08/02 06:18:57;;;;;;;3.25;2.03;;;;;;;15.27;100.00;99344.38;4989613;28;20046;-89
2023/08/02 06:21:23;;;;;;;3.78;2.10;;;;;;;15.27;100.00;99341.75;4979573;28;20026;-88
2023/08/02 06:23:49;;;;;;;3.35;2.03;;;;;;;15.26;100.00;99332.22;4974859;28;20025;-89
2023/08/02 06:26:14;;;;;;;4.85;2.05;;;;;;;15.26;100.00;99328.75;4975411;28;20038;-90
2023/08/02 06:28:39;;;;;;;3.90;2.10;;;;;;;15.27;100.00;99326.03;4976549;28;20359;-88
2023/08/02 06:31:05;;;;;;;3.25;2.00;;;;;;;15.27;100.00;99320.78;4974772;28;20054;-90
2023/08/02 06:33:30;;;;;;;3.15;2.03;;;;;;;15.26;100.00;99307.81;4976389;28;20064;-90
2023/08/02 06:35:55;;;;;;;3.47;1.80;;;;;;;15.26;100.00;99303.38;4966246;28;20524;-89
2023/08/02 06:38:20;;;;;;;3.45;1.65;;;;;;;15.29;100.00;99297.94;4972254;28;20029;-89
2023/08/02 06:40:46;;;;;;;2.60;1.75;;;;;;;15.32;100.00;99297.72;4966983;28;20079;-90
2023/08/02 06:43:11;;;;;;;2.85;2.00;;;;;;;15.35;100.00;99285.34;4969336;28;20441;-88
2023/08/02 06:45:36;;;;;;;2.50;1.70;;;;;;;15.33;100.00;99273.19;4968989;28;20038;-89
2023/08/02 06:48:05;;;;;;;2.45;1.63;;;;;;;15.32;100.00;99274.16;4969702;28;20030;-89
2023/08/02 06:50:36;;;;;;;3.50;1.85;;;;;;;15.31;100.00;99267.22;4950685;28;20173;-90
2023/08/02 06:53:01;;;;;;;2.50;1.67;;;;;;;15.32;100.00;99262.81;4967754;28;20394;-90
2023/08/02 06:55:26;;;;;;;1.73;1.35;;;;;;;15.34;100.00;99250.44;4967532;28;20030;-90
2023/08/02 06:57:51;;;;;;;1.90;1.30;;;;;;;15.36;100.00;99232.00;4966155;28;20029;-89
2023/08/02 07:00:17;;;;;;;1.73;1.30;;;;;;;15.39;100.00;99226.53;4965095;28;20037;-90
2023/08/02 07:02:42;;;;;;;2.20;1.40;;;;;;;15.39;100.00;99209.03;4970241;28;20026;-90
2023/08/02 07:05:08;;;;;;;2.03;1.40;;;;;;;15.41;100.00;99208.91;4968673;28;20074;-90
2023/08/02 07:07:33;;;;;;;1.95;1.30;;;;;;;15.40;100.00;99202.00;4967362;28;20486;-91
2023/08/02 07:09:58;;;;;;;2.33;1.40;;;;;;;15.40;100.00;99195.00;4962614;28;20510;-90
2023/08/02 07:12:26;;;;;;;2.20;1.13;;;;;;;15.41;100.00;99180.09;4965731;28;20377;-92
2023/08/02 07:14:52;;;;;;;1.73;1.25;;;;;;;15.40;100.00;99171.41;4966029;28;20085;-93
2023/08/02 07:17:17;;;;;;;2.20;1.30;;;;;;;15.41;100.00;99166.97;4966590;28;20027;-92
2023/08/02 07:19:42;;;;;;;2.67;1.27;;;;;;;15.40;100.00;99179.25;4976450;28;20065;-92
2023/08/02 07:22:07;;;;;;;1.52;1.17;;;;;;;15.38;100.00;99175.06;4985186;28;20034;-90
2023/08/02 07:24:33;;;;;;;3.22;1.30;;;;;;;15.35;100.00;99170.06;4983490;28;20085;-91
2023/08/02 07:26:58;;;;;;;1.45;1.10;;;;;;;15.37;100.00;99168.19;4983958;28;20030;-91
2023/08/02 07:29:23;;;;;;;1.58;1.13;;;;;;;15.36;100.00;99166.50;4984564;28;20034;-90
2023/08/02 07:31:48;;;;;;;3.20;1.40;;;;;;;15.35;100.00;99172.69;4985218;28;20041;-91
2023/08/02 07:34:14;;;;;;;2.67;1.30;;;;;;;15.36;100.00;99153.41;4983809;28;20022;-92
2023/08/02 07:36:39;;;;;;;2.72;1.42;;;;;;;15.37;100.00;99157.69;4981747;28;20082;-91
2023/08/02 07:39:04;;;;;;;1.67;1.25;;;;;;;15.38;100.00;99154.94;4983855;28;20061;-90
2023/08/02 07:41:29;;;;;;;1.70;1.23;;;;;;;15.40;100.00;99152.22;4984508;28;20070;-91
2023/08/02 07:43:55;;;;;;;2.33;1.10;;;;;;;15.41;100.00;99143.41;4984091;28;20516;-89
2023/08/02 07:46:22;;;;;;;2.20;1.23;;;;;;;15.43;100.00;99138.88;4983118;28;20072;-88
2023/08/02 07:48:50;;;;;;;2.03;1.20;;;;;;;15.44;100.00;99140.56;4983701;28;20084;-88
2023/08/02 07:51:15;;;;;;;2.20;1.20;;;;;;;15.44;100.00;99130.06;4984356;28;20378;-89
2023/08/02 07:53:41;;;;;;;1.20;1.00;;;;;;;15.47;100.00;99122.81;4984361;28;20073;-89
2023/08/02 07:56:07;;;;;;;1.60;1.10;;;;;;;15.52;100.00;99121.66;4986228;28;20081;-90
2023/08/02 07:58:32;;;;;;;2.58;1.00;;;;;;;15.56;100.00;99121.31;4984827;28;20117;-88
2023/08/02 08:01:04;;;;;;;1.38;1.05;;;;;;;15.59;100.00;99105.34;4984993;28;20038;-89
2023/08/02 08:03:29;;;;;;;2.03;1.05;;;;;;;15.63;100.00;99101.56;4980886;28;20397;-88
2023/08/02 08:05:55;;;;;;;1.63;1.05;;;;;;;15.67;100.00;99094.28;4983411;28;20022;-89
2023/08/02 08:08:20;;;;;;;1.50;1.00;;;;;;;15.69;100.00;99091.56;4984267;28;20030;-89
2023/08/02 08:10:52;;;;;;;1.88;1.10;;;;;;;15.72;100.00;99086.91;4983594;28;20030;-90
2023/08/02 08:13:18;;;;;;;3.00;1.10;;;;;;;15.74;100.00;99089.41;4983212;28;20127;-88
2023/08/02 08:15:43;;;;;;;2.33;1.20;;;;;;;15.74;100.00;99074.53;4984505;28;20069;-88
2023/08/02 08:18:09;;;;;;;1.83;1.23;;;;;;;15.76;100.00;99079.66;4980312;28;20382;-90
2023/08/02 08:20:34;;;;;;;1.65;1.15;;;;;;;15.79;100.00;99068.94;4981154;28;20120;-92
2023/08/02 08:22:59;;;;;;;1.17;0.90;;;;;;;15.81;100.00;99061.78;4984516;28;20037;-92
2023/08/02 08:25:24;;;;;;;1.40;1.20;;;;;;;15.86;100.00;99066.72;4982895;28;20046;-89
2023/08/02 08:27:50;;;;;;;1.17;0.93;;;;;;;15.85;100.00;99063.25;4983334;28;20362;-92
2023/08/02 08:30:15;;;;;;;1.58;1.13;;;;;;;15.85;100.00;99062.38;4981299;28;20026;-89
2023/08/02 08:32:40;;;;;;;1.35;0.98;;;;;;;15.86;100.00;99062.31;4982844;28;20026;-90
2023/08/02 08:35:06;;;;;;;1.30;0.98;;;;;;;15.88;100.00;99070.91;4982268;28;20045;-90
2023/08/02 08:37:32;;;;;;;2.38;0.98;;;;;;;15.90;100.00;99066.34;4983032;28;20120;-89
2023/08/02 08:39:57;;;;;;;1.65;1.00;;;;;;;15.92;100.00;99051.34;4984465;28;20471;-88
2023/08/02 08:42:22;;;;;;;1.90;1.10;;;;;;;15.93;100.00;99049.56;4967850;28;20038;-89
2023/08/02 08:44:48;;;;;;;1.27;0.88;;;;;;;15.95;100.00;99046.81;4984244;28;20769;-89
2023/08/02 08:47:15;;;;;;;1.40;0.95;;;;;;;15.97;100.00;99050.16;4982870;28;20034;-88
2023/08/02 08:49:40;;;;;;;1.40;0.90;;;;;;;15.98;100.00;99062.31;4981139;28;20033;-91
2023/08/02 08:52:11;;;;;;;1.10;0.93;;;;;;;16.01;100.00;99062.91;4983568;28;20030;-90
2023/08/02 08:54:38;;;;;;;1.85;0.90;;;;;;;16.07;100.00;99062.44;4982831;28;20129;-91
2023/08/02 08:57:07;;;;;;;1.30;0.95;;;;;;;16.13;100.00;99048.00;4983476;28;20062;-89
2023/08/02 08:59:34;;;;;;;1.63;1.10;;;;;;;16.24;100.00;99037.50;4986396;28;20166;-89
2023/08/02 09:02:00;;;;;;;1.65;1.00;;;;;;;16.35;100.00;99038.47;4986649;28;20030;-89
2023/08/02 09:04:25;;;;;;;1.23;1.00;;;;;;;16.41;100.00;99045.00;4986652;28;20022;-89
2023/08/02 09:06:51;;;;;;;1.33;1.00;;;;;;;16.47;100.00;99042.72;4985160;28;20034;-88
2023/08/02 09:09:16;;;;;;;1.17;0.85;;;;;;;16.54;100.00;99037.81;4985442;28;20440;-89
2023/08/02 09:11:45;;;;;;;1.30;1.00;;;;;;;16.63;100.00;99037.09;4984753;28;20038;-91
2023/08/02 09:14:15;;;;;;;0.90;0.90;;;;;;;16.70;100.00;99026.94;4986226;28;20235;-89
2023/08/02 09:16:56;;;;;;;1.10;0.90;;;;;;;16.76;100.00;99029.03;4984111;28;20030;-89
2023/08/02 09:19:27;;;;;;;1.20;1.00;;;;;;;16.84;100.00;99017.91;4987528;28;20045;-88
2023/08/02 09:22:08;;;;;;;1.20;1.10;;;;;;;16.89;100.00;99015.75;4986669;28;20034;-89
2023/08/02 09:24:36;;;;;;;1.30;0.90;;;;;;;17.02;100.00;99007.75;4987525;28;20174;-89
2023/08/02 09:27:03;;;;;;;1.10;1.00;;;;;;;17.13;100.00;99007.69;4984612;28;20030;-89
2023/08/02 09:29:43;;;;;;;1.17;1.00;;;;;;;17.25;100.00;99005.03;4987163;28;20040;-91
2023/08/02 09:32:09;;;;;;;1.10;1.00;;;;;;;17.31;100.00;98999.22;4985003;28;20121;-89
2023/08/02 09:34:49;;;;;;;1.00;0.90;;;;;;;17.39;100.00;98986.28;4984789;28;20076;-89
2023/08/02 09:37:16;;;;;;;0.82;0.82;;;;;;;17.50;100.00;98989.81;4986472;28;20043;-92
2023/08/02 09:39:50;;;;;;;1.65;0.80;;;;;;;17.64;100.00;98978.94;4987252;28;20473;-91
2023/08/02 09:42:15;;;;;;;1.20;1.10;;;;;;;17.72;100.00;98986.16;4985091;28;20044;-90
2023/08/02 09:44:41;;;;;;;1.25;1.15;;;;;;;17.77;100.00;98977.88;4986719;28;20034;-89
2023/08/02 09:47:11;;;;;;;1.20;1.10;;;;;;;17.86;100.00;98979.72;4985077;28;20026;-89
2023/08/02 09:49:38;;;;;;;1.35;1.25;;;;;;;17.91;100.00;98969.66;4986270;28;20486;-90
2023/08/02 09:52:03;;;;;;;1.92;1.60;;;;;;;17.97;100.00;98963.84;4983665;28;20034;-91
2023/08/02 09:54:30;;;;;;;1.27;1.10;;;;;;;17.99;100.00;98961.94;4986031;28;20037;-92
2023/08/02 09:56:56;;;;;;;1.30;1.20;;;;;;;18.03;100.00;98968.59;4984468;28;20042;-90
2023/08/02 09:59:26;;;;;;;1.55;1.45;;;;;;;18.02;100.00;98966.94;4983499;28;20508;-90
2023/08/02 10:01:51;;;;;;;1.50;1.40;;;;;;;17.98;100.00;98965.53;4983823;28;20401;-90
2023/08/02 10:04:19;;;;;;;1.48;1.38;;;;;;;17.96;100.00;98962.16;4983195;28;20040;-91
2023/08/02 10:06:52;;;;;;;1.30;1.20;;;;;;;18.00;100.00;98958.34;4985666;28;20030;-90
2023/08/02 10:09:19;;;;;;;1.10;1.00;;;;;;;18.10;100.00;98958.38;4985764;28;20038;-93
2023/08/02 10:11:50;;;;;;;1.15;1.05;;;;;;;18.19;100.00;98954.94;4987914;28;20034;-90
2023/08/02 10:14:16;;;;;;;1.10;1.00;;;;;;;18.28;100.00;98958.53;4986993;28;20108;-90
2023/08/02 10:16:43;;;;;;;1.30;1.20;;;;;;;18.34;100.00;98960.66;4985499;28;20478;-89
2023/08/02 10:19:11;;;;;;;1.40;1.30;;;;;;;18.40;100.00;98954.00;4984353;28;20158;-90
2023/08/02 10:21:38;;;;;;;1.73;1.40;;;;;;;18.46;100.00;98957.88;4985139;28;20031;-89
2023/08/02 10:24:04;;;;;;;1.35;1.20;;;;;;;18.52;100.00;98946.81;4983340;28;20018;-90
2023/08/02 10:26:30;;;;;;;2.13;1.20;;;;;;;18.54;100.00;98931.72;4984928;28;20034;-90
2023/08/02 10:28:58;;;;;;;1.02;1.02;;;;;;;18.54;100.00;98929.06;4987167;28;20041;-91
2023/08/02 10:31:24;;;;;;;1.30;0.93;;;;;;;18.54;100.00;98918.53;4987569;28;20026;-91
2023/08/02 10:33:49;;;;;;;2.28;1.00;;;;;;;18.58;100.00;98909.41;4985442;28;20035;-91
2023/08/02 10:36:15;;;;;;;2.25;1.30;;;;;;;18.62;100.00;98900.22;4988692;28;20063;-90
2023/08/02 10:38:41;;;;;;;1.52;1.40;;;;;;;18.74;100.00;98897.47;4987034;28;20053;-91
2023/08/02 10:41:09;;;;;;;1.88;1.60;;;;;;;18.85;100.00;98889.41;4989154;28;20022;-90
2023/08/02 10:43:54;;;;;;;1.70;1.60;;;;;;;18.94;100.00;98898.25;4971896;28;20057;-89
2023/08/02 10:46:32;;;;;;;1.60;1.50;;;;;;;18.99;100.00;98897.88;4987451;28;20038;-90
2023/08/02 10:49:17;;;;;;;1.80;1.70;;;;;;;19.04;100.00;98895.66;4989860;28;20034;-89
2023/08/02 10:51:45;;;;;;;1.73;1.63;;;;;;;19.03;100.00;98884.28;4975109;28;20062;-89
2023/08/02 10:54:14;;;;;;;2.40;1.20;;;;;;;19.00;100.00;98876.66;4989799;28;20026;-90
2023/08/02 10:56:51;;;;;;;1.40;1.27;;;;;;;18.95;100.00;98881.50;4988877;28;20084;-92
2023/08/02 10:59:22;;;;;;;2.20;1.50;;;;;;;18.96;100.00;98886.63;4989812;28;20113;-91
2023/08/02 11:01:57;;;;;;;1.40;1.30;;;;;;;18.96;100.00;98886.63;4987184;28;20030;-93
2023/08/02 11:04:24;;;;;;;1.50;1.40;;;;;;;18.94;100.00;98880.69;4987400;28;20495;-89
2023/08/02 11:06:49;;;;;;;2.33;1.30;;;;;;;18.93;100.00;98865.81;4986530;28;20486;-89
2023/08/02 11:09:14;;;;;;;1.52;1.13;;;;;;;18.92;100.00;98848.34;4986092;28;20030;-89
2023/08/02 11:11:40;;;;;;;1.50;1.40;;;;;;;18.95;100.00;98842.00;4987293;28;20128;-89
2023/08/02 11:14:05;;;;;;;1.90;1.40;;;;;;;19.02;100.00;98844.88;4987161;28;20145;-90
2023/08/02 11:16:37;;;;;;;1.83;1.40;;;;;;;19.02;100.00;98843.09;4986007;28;20026;-90
2023/08/02 11:19:08;;;;;;;1.65;1.35;;;;;;;18.99;100.00;98851.28;4980697;28;20380;-89
2023/08/02 11:21:34;;;;;;;1.30;1.20;;;;;;;18.96;100.00;98855.00;4964238;28;20501;-91
2023/08/02 11:24:00;;;;;;;1.17;1.00;;;;;;;18.93;100.00;98855.28;4966932;28;20478;-89